CheckWX is a tool to help pilots better visualize weather data.  It is not intended as a substitute for an official pre-flight weather briefing.

15:10:38 UTC

7W6 METAR
Hyde County Airport
Engelhard, North Carolina, USA
Current

16 mins ago

K7W6 191455Z AUTO 28003KT 7SM OVC003 08/07 A2986 RMK AO2 T00800074
Observed
Nov-19 @ 14:55 UTC
Wind
  • 280° at 3 KTS
Visibility
7 SM
Flight Rules
LIFR
Cloud Levels
  • Overcast at 300' AGL
Temperature
C / 46°F
Dewpoint
C / 45°F
Humidity
93%
Altimeter
29.86" Hg
Pressure
1011.22 hPa
Previous

36 mins ago

K7W6 191435Z AUTO 27005KT 5SM BR OVC003 08/07 A2987 RMK AO2 T00800074
Observed
Nov-19 @ 14:35 UTC
Wind
  • 270° at 5 KTS
Visibility
5 SM
Flight Rules
LIFR
Conditions
Mist
Cloud Levels
  • Overcast at 300' AGL
Temperature
C / 46°F
Dewpoint
C / 45°F
Humidity
93%
Altimeter
29.87" Hg
Pressure
1011.52 hPa
Previous

56 mins ago

K7W6 191415Z AUTO 29006KT 7SM OVC003 08/08 A2986 RMK AO2 T00800075
Observed
Nov-19 @ 14:15 UTC
Wind
  • 290° at 6 KTS
Visibility
7 SM
Flight Rules
LIFR
Cloud Levels
  • Overcast at 300' AGL
Temperature
C / 46°F
Dewpoint
C / 46°F
Humidity
100%
Altimeter
29.86" Hg
Pressure
1011.22 hPa